Pagrindinis puslapis
METAR-TAF:

METAR-TAF

Oro uostai :

Hasvik, Norvegija

platuma: 70-29N, ilguma: 022-09E, Aukštis: 10 m

Dabartinis oras

Ataskaita buvo paskelbta 22 minutes, ne 07:50 UTC
Vėjas 25 kt iš Vakarų su gūsio iki 39 kt
Temperatūra 6°C
Drėgmė 70%
Slėgis 1018 hPa
Matomumas 10 km arba daugiau
Su prošvaistėmis ne aukštis 2100 ft
Liūtis kaimynystėje,

METAR: ENHK 240750Z 27025G39KT 9999 VCSH BKN021 06/01 Q1018

Laikas: 10:12 (08:12 UTC)

Prognozė

Ataskaita buvo paskelbta 3 valandos ir 12 minutes, ne 05:00 UTC
Prognozė galioja nuo 24 metu 06 UTC su 24 metu 15 UTC
Vėjas 20 kt iš Vakarų su gūsio iki 30 kt
Matomumas 10 km arba daugiau
Išsisklaidę debesys ne aukštis 1400 ft
Su prošvaistėmis ne aukštis 2500 ft
Laikinai
nuo 24 metu 06 UTC su 24 metu 15 UTC
Vėjas 30 kt iš Vakarų su gūsio iki 40 kt

TAF: ENHK 240500Z 2406/2415 27020G30KT 9999 SCT014 BKN025 TEMPO 2406/2415 28030G40KT

Orai ataskaitas ir orų prognozės (METAR, TAF).

turimą stotys yra geltonos ir raudonos taškus žemėlapyje.

Perkelti pele per norėdami pamatyti stoties vardą.

Tada spustelėkite, norėdami matyti oro stebėjimo ir prognozės.

Norėdami pakeisti žemėlapį: spustelėkite ant žalios mygtukų su juodo kryžiaus žemyn,; žalią mygtuką su brūkšneliu, jei norite nutolinti; arba žalių rodyklių gretimoms žemėlapius.


METAR-TAF: